Weather History for Goldsboro, NC

Change the Weather History Date:

Monday, November 25, 2013

  Actual Average (KGSB) Record (KGSB)
Temperature  
Mean Temperature 30 °F -  
Max Temperature 43 °F 62 °F 77 °F (1999)
Min Temperature 18 °F 40 °F 23 °F (2013)
Degree Days  
Heating Degree Days 34    
Moisture  
Dew Point 14 °F    
Average Humidity 58    
Maximum Humidity 87    
Minimum Humidity 23    
Precipitation  
Precipitation 0.00 in - - ()
Sea Level Pressure  
Sea Level Pressure 30.52 in    
Wind  
Wind Speed 1 mph (ENE)    
Max Wind Speed 8 mph    
Max Gust Speed -    
Visibility 10 miles    
Events      
Averages and records for this station are not official NWS values.
T = Trace of Precipitation, MM = Missing Value Source: NWS Daily Summary

Daily Weather History Graph

Daily Weather History Graph

Search for Another Location

Airport:

Trip Planner

Search our weather history database for the weather conditions in past years. The results will help you decide how hot, cold, wet, or windy it might be!

Date:

Astronomy

Nov. 25, 2013 Rise Set
Actual Time 6:57 AM EST 5:00 PM EST
Civil Twilight 6:29 AM EST 5:28 PM EST
Nautical Twilight 5:58 AM EST 5:59 PM EST
Astronomical Twilight 5:27 AM EST 6:29 PM EST
Moon No Moon Rise 12:21 PM EST (11/25)
Length of Visible Light 10h 58m
Length of Day
10h 03m
Waning Gibbous, 51% of the Moon is Illuminated
Nov 25
Waning Gibbous
Nov 25
Last Quarter
Dec 2
New
Dec 9
First Quarter
Dec 17
Full

Hourly Weather History & Observations

Time (EST) Temp. Windchill Dew Point Humidity Pressure Visibility Wind Dir Wind Speed Gust Speed Precip Events Conditions
12:15 AM 23.5 °F - 17.6 °F 78% 30.55 in 10.0 mi Calm Calm - N/A   Clear
12:35 AM 21.7 °F - 16.9 °F 82% 30.55 in 10.0 mi Calm Calm - N/A   Clear
12:55 AM 23.0 °F - 17.4 °F 79% 30.54 in 10.0 mi Calm Calm - N/A   Clear
1:15 AM 23.7 °F 19.3 °F 15.3 °F 70% 30.54 in 10.0 mi North 3.5 mph - N/A   Clear
1:35 AM 23.0 °F 18.4 °F 14.2 °F 69% 30.54 in 10.0 mi North 3.5 mph - N/A   Clear
1:55 AM 23.9 °F - 14.0 °F 66% 30.54 in 10.0 mi Calm Calm - N/A   Clear
2:15 AM 22.8 °F - 15.1 °F 72% 30.55 in 10.0 mi Calm Calm - N/A   Clear
2:35 AM 22.1 °F - 14.0 °F 71% 30.56 in 10.0 mi Calm Calm - N/A   Clear
2:55 AM 22.1 °F - 16.3 °F 79% 30.56 in 10.0 mi Calm Calm - N/A   Clear
3:15 AM 21.6 °F - 16.3 °F 80% 30.56 in 10.0 mi Calm Calm - N/A   Clear
3:35 AM 21.0 °F - 16.0 °F 81% 30.56 in 10.0 mi Calm Calm - N/A   Clear
3:55 AM 21.0 °F - 16.9 °F 84% 30.56 in 10.0 mi Calm Calm - N/A   Clear
4:15 AM 20.8 °F - 16.9 °F 85% 30.56 in 10.0 mi Calm Calm - N/A   Clear
4:35 AM 20.7 °F - 17.4 °F 87% 30.56 in 10.0 mi Calm Calm - N/A   Clear
4:55 AM 18.7 °F - 13.1 °F 79% 30.58 in 10.0 mi Calm Calm - N/A   Clear
5:15 AM 20.1 °F - 15.4 °F 82% 30.59 in 10.0 mi Calm Calm - N/A   Clear
5:35 AM 20.5 °F - 13.5 °F 74% 30.58 in 10.0 mi Calm Calm - N/A   Clear
5:55 AM 20.1 °F - 14.9 °F 80% 30.58 in 10.0 mi Calm Calm - N/A   Clear
6:15 AM 19.6 °F 14.5 °F 14.4 °F 80% 30.57 in 10.0 mi ENE 3.5 mph - N/A   Clear
6:35 AM 18.5 °F - 14.4 °F 84% 30.58 in 10.0 mi Calm Calm - N/A   Clear
6:55 AM 19.8 °F - 14.5 °F 80% 30.58 in 10.0 mi Calm Calm - N/A   Clear
7:15 AM 20.3 °F - 13.8 °F 76% 30.58 in 10.0 mi Calm Calm - N/A   Clear
7:35 AM 21.0 °F - 14.7 °F 77% 30.58 in 10.0 mi Calm Calm - N/A   Clear
7:55 AM 23.7 °F - 14.7 °F 69% 30.59 in 10.0 mi Calm Calm - N/A   Clear
8:15 AM 27.1 °F 21.8 °F 15.1 °F 60% 30.60 in 10.0 mi NE 4.6 mph - N/A   Clear
8:35 AM 28.2 °F 22.0 °F 14.4 °F 56% 30.59 in 10.0 mi NE 5.8 mph - N/A   Clear
8:55 AM 29.3 °F 21.5 °F 12.6 °F 50% 30.60 in 10.0 mi NE 8.1 mph - N/A   Clear
9:15 AM 28.9 °F 21.9 °F 12.2 °F 50% 30.60 in 10.0 mi NE 6.9 mph - N/A   Clear
9:35 AM 30.2 °F 26.7 °F 12.2 °F 47% 30.62 in 10.0 mi ENE 3.5 mph - N/A   Clear
9:55 AM 32.2 °F 26.7 °F 11.5 °F 42% 30.61 in 10.0 mi ENE 5.8 mph - N/A   Clear
10:15 AM 33.3 °F 27.1 °F 10.4 °F 39% 30.62 in 10.0 mi East 6.9 mph - N/A   Clear
10:35 AM 34.2 °F 30.0 °F 9.9 °F 36% 30.61 in 10.0 mi East 4.6 mph - N/A   Clear
10:55 AM 34.9 °F 29.9 °F 9.5 °F 35% 30.59 in 10.0 mi East 5.8 mph - N/A   Clear
11:15 AM 36.0 °F - 8.6 °F 32% 30.59 in 10.0 mi Calm Calm - N/A   Clear
11:35 AM 36.1 °F 31.4 °F 8.8 °F 32% 30.58 in 10.0 mi East 5.8 mph - N/A   Clear
11:55 AM 37.9 °F 33.5 °F 9.0 °F 30% 30.56 in 10.0 mi ENE 5.8 mph - N/A   Clear
12:15 PM 39.0 °F 36.8 °F 9.7 °F 30% 30.56 in 10.0 mi SE 3.5 mph - N/A   Clear
12:35 PM 39.6 °F 36.3 °F 9.1 °F 29% 30.55 in 10.0 mi NE 4.6 mph - N/A   Clear
12:55 PM 39.7 °F - 8.2 °F 27% 30.54 in 10.0 mi Calm Calm - N/A   Clear
1:15 PM 39.9 °F 37.8 °F 7.7 °F 26% 30.52 in 10.0 mi East 3.5 mph - N/A   Clear
1:35 PM 41.0 °F 39.0 °F 8.8 °F 27% 30.52 in 10.0 mi NE 3.5 mph - N/A   Clear
1:55 PM 41.7 °F - 6.6 °F 24% 30.50 in 10.0 mi Calm Calm - N/A   Clear
2:15 PM 42.3 °F 38.6 °F 7.2 °F 24% 30.49 in 10.0 mi East 5.8 mph - N/A   Clear
2:35 PM 41.9 °F - 6.4 °F 23% 30.49 in 10.0 mi Calm Calm - N/A   Clear
2:55 PM 42.8 °F 41.1 °F 7.3 °F 23% 30.49 in 10.0 mi SE 3.5 mph - N/A   Clear
3:15 PM 43.0 °F 41.3 °F 7.2 °F 23% 30.49 in 10.0 mi SSE 3.5 mph - N/A   Clear
3:35 PM 42.1 °F 38.4 °F 7.9 °F 25% 30.48 in 10.0 mi SE 5.8 mph - N/A   Clear
3:55 PM 41.2 °F 39.2 °F 7.0 °F 24% 30.48 in 10.0 mi SE 3.5 mph - N/A   Clear
4:15 PM 41.5 °F 37.1 °F 7.5 °F 25% 30.48 in 10.0 mi SE 6.9 mph - N/A   Clear
4:35 PM 40.6 °F - 8.6 °F 27% 30.48 in 10.0 mi Calm Calm - N/A   Clear
4:55 PM 38.8 °F - 9.9 °F 30% 30.48 in 10.0 mi Calm Calm - N/A   Clear
5:15 PM 34.5 °F - 15.4 °F 46% 30.47 in 10.0 mi Calm Calm - N/A   Clear
5:35 PM 33.6 °F - 14.4 °F 45% 30.47 in 10.0 mi Calm Calm - N/A   Clear
5:55 PM 32.5 °F - 14.2 °F 47% 30.47 in 10.0 mi Calm Calm - N/A   Clear
6:15 PM 31.5 °F - 16.2 °F 53% 30.47 in 10.0 mi Calm Calm - N/A   Clear
6:35 PM 30.7 °F - 14.9 °F 52% 30.47 in 10.0 mi Calm Calm - N/A   Clear
6:55 PM 30.0 °F - 18.7 °F 63% 30.47 in 10.0 mi Calm Calm - N/A   Clear
7:15 PM 29.1 °F - 19.2 °F 67% 30.47 in 10.0 mi Calm Calm - N/A   Clear
7:35 PM 28.2 °F - 19.9 °F 71% 30.47 in 10.0 mi Calm Calm - N/A   Clear
7:55 PM 27.7 °F - 15.1 °F 59% 30.47 in 10.0 mi Calm Calm - N/A   Clear
8:15 PM 28.9 °F - 20.7 °F 71% 30.46 in 10.0 mi Calm Calm - N/A   Clear
8:35 PM 28.9 °F - 22.6 °F 77% 30.45 in 10.0 mi Calm Calm - N/A   Clear
8:55 PM 29.3 °F - 20.3 °F 69% 30.45 in 10.0 mi Calm Calm - N/A   Clear
9:15 PM 31.1 °F - 23.0 °F 72% 30.44 in 10.0 mi Calm Calm - N/A   Clear
9:35 PM 30.0 °F 26.5 °F 24.1 °F 79% 30.42 in 10.0 mi NE 3.5 mph - N/A   Clear
9:55 PM 31.8 °F - 26.4 °F 80% 30.43 in 10.0 mi Calm Calm - N/A   Clear
10:15 PM 31.8 °F - 24.1 °F 73% 30.42 in 10.0 mi Calm Calm - N/A   Clear
10:35 PM 31.1 °F - 23.0 °F 72% 30.41 in 10.0 mi Calm Calm - N/A   Clear
10:55 PM 32.0 °F - 26.4 °F 80% 30.40 in 10.0 mi Calm Calm - N/A   Clear
11:15 PM 32.0 °F - 24.1 °F 73% 30.39 in 10.0 mi Calm Calm - N/A   Clear
11:35 PM 32.0 °F - 25.2 °F 76% 30.40 in 10.0 mi Calm Calm - N/A   Clear